ADDS TAF Data INFO
IDs: Format: Raw Decoded Include METARs

Data at: 0751 UTC 17 Oct 2017

KPGD 170520Z 1706/1806 04004KT P6SM SCT040 BKN250
  TEMPO 1709/1712 5SM BR
  FM171400 06009KT P6SM SCT025 BKN150
  FM171900 05010KT P6SM VCSH SCT025 BKN040
  FM180100 04008KT P6SM SCT020 OVC040